Time;durP1;ratioP1;P1;durP2;ratioP2;P2;SDS_P1;SDS_P2;PMS_P1;PMS_P2;Temp;Humidity;BMP_temperature;BMP_pressure;BME280_temperature;BME280_humidity;BME280_pressure;Samples;Min_cycle;Max_cycle;Signal;HPM_P1;HPM_P2
2020/12/02 00:00:57;;;;;;;55.13;42.70;;;4.10;99.90;;;;;;5035155;28;20451;-66
2020/12/02 00:03:28;;;;;;;55.33;44.10;;;4.10;99.90;;;;;;5034357;28;20878;-65
2020/12/02 00:05:56;;;;;;;52.77;43.33;;;4.10;99.90;;;;;;5034684;28;20451;-68
2020/12/02 00:08:29;;;;;;;64.33;45.73;;;4.10;99.90;;;;;;5034293;28;20440;-65
2020/12/02 00:10:56;;;;;;;52.40;42.83;;;4.10;99.90;;;;;;5015007;28;20447;-66
2020/12/02 00:13:28;;;;;;;57.83;43.20;;;4.10;99.90;;;;;;5015070;28;20441;-65
2020/12/02 00:15:55;;;;;;;56.80;45.07;;;4.10;99.90;;;;;;5014762;28;20452;-65
2020/12/02 00:18:21;;;;;;;59.90;44.20;;;4.10;99.90;;;;;;5014599;28;20456;-66
2020/12/02 00:20:47;;;;;;;60.80;47.60;;;4.10;99.90;;;;;;5034056;28;20959;-66
2020/12/02 00:23:14;;;;;;;54.40;43.10;;;4.10;99.90;;;;;;5033198;28;20490;-65
2020/12/02 00:25:40;;;;;;;60.27;44.50;;;4.20;99.90;;;;;;5034023;28;20472;-65
2020/12/02 00:28:11;;;;;;;56.23;43.60;;;4.20;99.90;;;;;;5033887;28;20457;-66
2020/12/02 00:30:39;;;;;;;58.40;43.50;;;4.10;99.90;;;;;;5034201;28;20957;-65
2020/12/02 00:33:09;;;;;;;56.07;42.53;;;4.10;99.90;;;;;;5033755;28;20977;-65
2020/12/02 00:35:37;;;;;;;64.80;46.23;;;4.10;99.90;;;;;;5033414;28;21013;-67
2020/12/02 00:38:06;;;;;;;64.97;44.57;;;4.20;99.90;;;;;;5033859;28;20459;-67
2020/12/02 00:40:32;;;;;;;58.20;45.20;;;4.10;99.90;;;;;;5033992;28;20449;-64
2020/12/02 00:42:59;;;;;;;57.03;43.13;;;4.10;99.90;;;;;;5033943;28;20487;-65
2020/12/02 00:45:25;;;;;;;53.37;42.43;;;4.10;99.90;;;;;;5033334;28;20503;-65
2020/12/02 00:47:53;;;;;;;57.80;44.10;;;4.10;99.90;;;;;;5033564;28;20983;-67
2020/12/02 00:50:21;;;;;;;59.67;45.27;;;4.10;99.90;;;;;;5033834;28;20457;-68
2020/12/02 00:53:02;;;;;;;56.60;44.57;;;4.00;99.90;;;;;;5034271;28;20455;-65
2020/12/02 00:55:28;;;;;;;54.77;44.67;;;4.10;99.90;;;;;;5033357;28;21045;-65
2020/12/02 00:57:55;;;;;;;58.83;42.77;;;4.10;99.90;;;;;;5033965;28;20456;-66
2020/12/02 01:00:24;;;;;;;60.33;46.03;;;4.10;99.90;;;;;;5033568;28;20986;-64
2020/12/02 01:02:59;;;;;;;60.40;45.50;;;4.20;99.90;;;;;;5033846;28;20485;-64
2020/12/02 01:05:26;;;;;;;59.60;44.97;;;4.10;99.90;;;;;;5033174;28;21037;-65
2020/12/02 01:07:52;;;;;;;61.53;46.97;;;4.20;99.90;;;;;;5013954;28;20508;-65
2020/12/02 01:10:19;;;;;;;61.50;45.50;;;4.20;99.90;;;;;;5028562;28;20457;-64
2020/12/02 01:12:48;;;;;;;61.47;47.03;;;4.20;99.90;;;;;;5033676;28;20440;-64
2020/12/02 01:15:19;;;;;;;54.97;44.93;;;4.10;99.90;;;;;;5032560;28;20546;-65
2020/12/02 01:18:23;;;;;;;58.50;46.97;;;4.10;99.90;;;;;;5033895;28;20445;-65
2020/12/02 01:21:00;;;;;;;59.50;44.47;;;4.10;99.90;;;;;;5032774;28;20448;-66
2020/12/02 01:23:26;;;;;;;61.07;44.13;;;4.10;99.90;;;;;;5033872;28;20486;-65
2020/12/02 01:25:53;;;;;;;60.47;46.20;;;4.20;99.90;;;;;;5033122;28;20836;-66
2020/12/02 01:28:24;;;;;;;62.53;47.93;;;4.10;99.90;;;;;;5033799;28;20451;-65
2020/12/02 01:30:50;;;;;;;58.93;44.23;;;4.10;99.90;;;;;;5033181;28;20464;-64
2020/12/02 01:33:17;;;;;;;60.53;46.30;;;4.10;99.90;;;;;;5032982;28;20443;-66
2020/12/02 01:35:46;;;;;;;57.83;45.40;;;4.10;99.90;;;;;;5032066;28;21062;-65
2020/12/02 01:38:20;;;;;;;62.30;47.97;;;4.10;99.90;;;;;;5033444;28;20448;-65
2020/12/02 01:40:47;;;;;;;63.97;44.67;;;4.10;99.90;;;;;;5032973;28;20450;-65
2020/12/02 01:43:14;;;;;;;55.53;45.10;;;4.10;99.90;;;;;;5032727;28;20492;-65
2020/12/02 01:45:42;;;;;;;59.47;44.27;;;4.10;99.90;;;;;;5032760;28;20472;-65
2020/12/02 01:48:31;;;;;;;57.43;46.30;;;4.10;99.90;;;;;;5032950;28;20454;-65
2020/12/02 01:51:03;;;;;;;64.73;46.90;;;4.10;99.90;;;;;;5032581;28;20467;-66
2020/12/02 01:53:40;;;;;;;60.77;45.67;;;4.10;99.90;;;;;;5032609;28;20467;-65
2020/12/02 01:56:13;;;;;;;58.87;45.00;;;4.10;99.90;;;;;;5032494;28;20450;-66
2020/12/02 01:58:50;;;;;;;59.03;46.07;;;4.10;99.90;;;;;;5032718;28;20440;-65
2020/12/02 02:01:22;;;;;;;57.23;44.67;;;4.10;99.90;;;;;;5032581;28;20461;-65
2020/12/02 02:03:50;;;;;;;57.93;45.67;;;4.00;99.90;;;;;;5032112;28;20493;-65
2020/12/02 02:06:26;;;;;;;63.67;46.23;;;4.00;99.90;;;;;;5032177;28;20453;-65
2020/12/02 02:08:53;;;;;;;61.57;45.40;;;4.00;99.90;;;;;;5032573;28;20448;-65
2020/12/02 02:11:22;;;;;;;57.10;44.37;;;4.00;99.90;;;;;;5032042;28;20485;-65
2020/12/02 02:14:22;;;;;;;57.70;44.73;;;4.00;99.90;;;;;;5031704;28;20479;-65
2020/12/02 02:16:49;;;;;;;66.07;48.13;;;4.00;99.90;;;;;;4999529;28;20837;-66
2020/12/02 02:19:19;;;;;;;60.70;45.30;;;4.00;99.90;;;;;;5032369;28;20440;-65
2020/12/02 02:21:47;;;;;;;57.47;45.30;;;4.00;99.90;;;;;;5032429;28;20453;-64
2020/12/02 02:24:14;;;;;;;61.73;45.20;;;4.00;99.90;;;;;;5032167;28;20502;-64
2020/12/02 02:26:46;;;;;;;59.20;46.40;;;4.10;99.90;;;;;;5032144;28;20457;-65
2020/12/02 02:29:17;;;;;;;56.07;43.90;;;4.00;99.90;;;;;;5032026;28;20440;-65
2020/12/02 02:31:50;;;;;;;58.60;44.10;;;4.00;99.90;;;;;;5031882;28;20449;-65
2020/12/02 02:34:18;;;;;;;56.03;42.73;;;4.00;99.90;;;;;;5031463;28;20983;-66
2020/12/02 02:36:45;;;;;;;55.57;43.13;;;4.00;99.90;;;;;;5032368;28;20457;-66
2020/12/02 02:39:13;;;;;;;56.33;45.83;;;4.00;99.90;;;;;;5032117;28;20448;-64
2020/12/02 02:41:40;;;;;;;58.53;45.10;;;4.00;99.90;;;;;;5031600;28;20460;-65
2020/12/02 02:44:09;;;;;;;54.50;42.07;;;3.90;99.90;;;;;;5031557;28;20498;-67
2020/12/02 02:46:36;;;;;;;58.77;46.40;;;4.00;99.90;;;;;;5033731;28;20453;-65
2020/12/02 02:49:03;;;;;;;59.43;44.50;;;4.00;99.90;;;;;;5035887;28;20447;-64
2020/12/02 02:51:29;;;;;;;50.93;43.50;;;4.00;99.90;;;;;;5035867;28;20467;-65
2020/12/02 02:53:56;;;;;;;62.53;46.93;;;3.90;99.90;;;;;;5035527;28;21002;-64
2020/12/02 02:56:22;;;;;;;55.27;42.77;;;3.90;99.90;;;;;;5036038;28;20444;-65
2020/12/02 02:58:48;;;;;;;57.23;45.20;;;3.90;99.90;;;;;;5035815;28;20440;-65
2020/12/02 03:01:16;;;;;;;56.43;44.00;;;3.90;99.90;;;;;;5035506;28;20571;-65
2020/12/02 03:03:42;;;;;;;58.33;45.00;;;3.90;99.90;;;;;;5035574;28;20537;-65
2020/12/02 03:06:09;;;;;;;56.20;45.80;;;3.90;99.90;;;;;;5036349;28;20459;-65
2020/12/02 03:08:36;;;;;;;56.67;42.93;;;3.90;99.90;;;;;;5036439;28;20456;-66
2020/12/02 03:11:07;;;;;;;56.50;43.80;;;3.90;99.90;;;;;;5036302;28;20459;-64
2020/12/02 03:13:39;;;;;;;56.80;46.20;;;3.90;99.90;;;;;;5035202;28;20938;-66
2020/12/02 03:16:11;;;;;;;57.83;45.30;;;3.80;99.90;;;;;;5035342;28;20452;-66
2020/12/02 03:18:40;;;;;;;56.23;43.70;;;3.90;99.90;;;;;;5035656;28;20445;-66
2020/12/02 03:21:13;;;;;;;60.27;43.40;;;3.90;99.90;;;;;;5035639;28;20455;-65
2020/12/02 03:23:39;;;;;;;55.17;44.30;;;3.90;99.90;;;;;;5038456;28;20481;-65
2020/12/02 03:26:06;;;;;;;56.83;44.00;;;4.00;99.90;;;;;;5039603;28;20476;-66
2020/12/02 03:28:32;;;;;;;55.67;43.90;;;3.90;99.90;;;;;;5037009;28;20944;-65
2020/12/02 03:31:01;;;;;;;57.93;44.63;;;3.90;99.90;;;;;;5036281;28;20454;-65
2020/12/02 03:33:28;;;;;;;54.60;43.00;;;3.90;99.90;;;;;;5035707;28;20445;-65
2020/12/02 03:35:56;;;;;;;56.60;44.03;;;3.90;99.90;;;;;;5035124;28;20990;-65
2020/12/02 03:38:23;;;;;;;56.63;42.97;;;3.90;99.90;;;;;;5035012;28;20445;-66
2020/12/02 03:40:50;;;;;;;54.13;42.90;;;3.90;99.90;;;;;;5035585;28;20448;-65
2020/12/02 03:43:17;;;;;;;56.63;45.40;;;3.90;99.90;;;;;;5035058;28;20454;-65
2020/12/02 03:45:45;;;;;;;54.23;42.37;;;3.90;99.90;;;;;;5034856;28;21007;-66
2020/12/02 03:48:13;;;;;;;54.40;41.93;;;3.90;99.90;;;;;;5034996;28;20448;-65
2020/12/02 03:50:40;;;;;;;55.10;42.60;;;4.00;99.90;;;;;;5034925;28;20452;-65
2020/12/02 03:53:09;;;;;;;56.00;44.00;;;3.90;99.90;;;;;;5035126;28;20451;-66
2020/12/02 03:55:35;;;;;;;58.17;44.90;;;4.00;99.90;;;;;;5034301;28;20487;-65
2020/12/02 03:58:02;;;;;;;57.03;43.30;;;3.90;99.90;;;;;;5033722;28;20448;-65
2020/12/02 04:00:28;;;;;;;57.10;45.07;;;4.00;99.90;;;;;;5034579;28;20797;-65
2020/12/02 04:02:54;;;;;;;58.77;43.40;;;3.90;99.90;;;;;;5035129;28;20459;-65
2020/12/02 04:05:21;;;;;;;61.23;51.00;;;3.90;99.90;;;;;;5033529;28;20492;-65
2020/12/02 04:07:47;;;;;;;62.43;53.90;;;3.70;99.90;;;;;;5034746;28;20445;-65
2020/12/02 04:10:14;;;;;;;60.97;54.27;;;3.70;99.90;;;;;;5035389;28;20459;-68
2020/12/02 04:12:42;;;;;;;59.83;50.77;;;3.60;99.90;;;;;;5034842;28;20455;-67
2020/12/02 04:15:08;;;;;;;63.57;53.97;;;3.60;99.90;;;;;;5033635;28;20879;-70
2020/12/02 04:17:35;;;;;;;62.53;51.23;;;3.60;99.90;;;;;;5034768;28;20448;-68
2020/12/02 04:20:01;;;;;;;59.27;51.57;;;3.60;99.90;;;;;;5034636;28;20457;-70
2020/12/02 04:22:27;;;;;;;62.67;52.40;;;3.50;99.90;;;;;;5035047;28;20447;-68
2020/12/02 04:24:54;;;;;;;61.03;52.00;;;3.60;99.90;;;;;;5034129;28;20480;-71
2020/12/02 04:27:21;;;;;;;62.83;51.33;;;3.60;99.90;;;;;;5035064;28;20974;-73
2020/12/02 04:29:47;;;;;;;56.57;49.90;;;3.60;99.90;;;;;;5034641;28;20455;-68
2020/12/02 04:32:13;;;;;;;58.97;51.60;;;3.50;99.90;;;;;;5034179;28;20457;-67
2020/12/02 04:34:40;;;;;;;53.90;47.43;;;3.60;99.90;;;;;;5033733;28;20483;-68
2020/12/02 04:37:06;;;;;;;58.83;50.37;;;3.60;99.90;;;;;;5034425;28;20501;-70
2020/12/02 04:39:32;;;;;;;59.87;50.80;;;3.50;99.90;;;;;;5034278;28;20456;-68
2020/12/02 04:41:58;;;;;;;62.27;51.57;;;3.60;99.90;;;;;;5034830;28;20455;-67
2020/12/02 04:44:26;;;;;;;57.97;49.03;;;3.50;99.90;;;;;;5034274;28;20530;-68
2020/12/02 04:46:54;;;;;;;58.20;51.90;;;3.50;99.90;;;;;;5034908;28;20528;-68
2020/12/02 04:49:23;;;;;;;58.07;51.87;;;3.50;99.90;;;;;;5034213;28;20440;-68
2020/12/02 04:51:54;;;;;;;58.17;51.90;;;3.60;99.90;;;;;;5034581;28;20449;-68
2020/12/02 04:54:20;;;;;;;58.50;50.43;;;3.50;99.90;;;;;;5033510;28;20473;-67
2020/12/02 04:56:48;;;;;;;60.40;50.90;;;3.60;99.90;;;;;;5033940;28;20467;-68
2020/12/02 04:59:14;;;;;;;60.37;51.40;;;3.60;99.90;;;;;;5033970;28;20450;-67
2020/12/02 05:01:51;;;;;;;54.87;48.87;;;3.60;99.90;;;;;;5033683;28;20452;-68
2020/12/02 05:04:21;;;;;;;58.07;49.77;;;3.60;99.90;;;;;;5033535;28;20495;-67
2020/12/02 05:06:50;;;;;;;60.50;52.40;;;3.60;99.90;;;;;;5034435;28;20440;-70
2020/12/02 05:09:20;;;;;;;59.37;52.57;;;3.50;99.90;;;;;;5033357;28;20821;-67
2020/12/02 05:11:59;;;;;;;62.37;51.40;;;3.50;99.90;;;;;;5033891;28;20452;-67
2020/12/02 05:14:32;;;;;;;58.97;51.37;;;3.50;99.90;;;;;;5033029;28;20461;-68
2020/12/02 05:17:16;;;;;;;59.63;51.37;;;3.50;99.90;;;;;;5033652;28;20447;-68
2020/12/02 05:19:43;;;;;;;56.70;48.70;;;3.50;99.90;;;;;;5033409;28;20455;-67
2020/12/02 05:22:13;;;;;;;57.13;50.93;;;3.40;99.90;;;;;;5033146;28;20527;-68
2020/12/02 05:24:45;;;;;;;55.33;49.13;;;3.50;99.90;;;;;;5032653;28;20485;-69
2020/12/02 05:27:16;;;;;;;58.97;51.50;;;3.50;99.90;;;;;;5032993;28;20445;-67
2020/12/02 05:29:52;;;;;;;62.03;50.50;;;3.50;99.90;;;;;;5033312;28;20447;-67
2020/12/02 05:32:22;;;;;;;58.03;50.33;;;3.50;99.90;;;;;;5033059;28;21002;-70
2020/12/02 05:34:48;;;;;;;54.83;48.43;;;3.40;99.90;;;;;;5033004;28;20479;-68
2020/12/02 05:37:24;;;;;;;60.73;49.13;;;3.50;99.90;;;;;;5032987;28;20828;-67
2020/12/02 05:39:55;;;;;;;58.93;50.20;;;3.50;99.90;;;;;;5033273;28;20425;-67
2020/12/02 05:42:26;;;;;;;54.73;48.77;;;3.40;99.90;;;;;;5033168;28;20450;-66
2020/12/02 05:45:00;;;;;;;57.17;47.40;;;3.40;99.90;;;;;;5032263;28;20579;-67
2020/12/02 05:47:28;;;;;;;60.57;49.73;;;3.50;99.90;;;;;;5032868;28;20471;-67
2020/12/02 05:49:57;;;;;;;58.00;50.40;;;3.50;99.90;;;;;;5032650;28;20463;-67
2020/12/02 05:52:27;;;;;;;57.23;50.57;;;3.50;99.90;;;;;;5032576;28;20450;-66
2020/12/02 05:54:58;;;;;;;58.63;49.00;;;3.50;99.90;;;;;;5032218;28;20473;-66
2020/12/02 05:57:24;;;;;;;59.03;51.17;;;3.50;99.90;;;;;;5032402;28;20456;-66
2020/12/02 05:59:53;;;;;;;54.57;47.40;;;3.40;99.90;;;;;;5032747;28;20445;-67
2020/12/02 06:02:21;;;;;;;53.67;46.77;;;3.50;99.90;;;;;;5032578;28;21001;-69
2020/12/02 06:04:51;;;;;;;56.50;50.07;;;3.50;99.90;;;;;;5020704;28;20558;-67
2020/12/02 06:07:18;;;;;;;55.90;49.80;;;3.50;99.90;;;;;;5032380;28;20461;-67
2020/12/02 06:09:47;;;;;;;55.47;48.83;;;3.50;99.90;;;;;;5032703;28;20454;-66
2020/12/02 06:12:15;;;;;;;54.07;47.90;;;3.50;99.90;;;;;;5032465;28;20460;-66
2020/12/02 06:14:42;;;;;;;53.93;48.10;;;3.50;99.90;;;;;;5031346;28;20471;-66
2020/12/02 06:17:13;;;;;;;52.77;46.97;;;3.50;99.90;;;;;;5032327;28;20452;-67
2020/12/02 06:19:49;;;;;;;55.27;49.20;;;3.40;99.90;;;;;;5031820;28;20967;-67
2020/12/02 06:22:43;;;;;;;52.77;47.07;;;3.50;99.90;;;;;;5031666;28;20818;-68
2020/12/02 06:25:40;;;;;;;55.43;48.03;;;3.50;99.90;;;;;;5031536;28;20488;-68
2020/12/02 06:28:07;;;;;;;54.13;47.80;;;3.40;99.90;;;;;;5032513;28;20806;-67
2020/12/02 06:30:33;;;;;;;54.70;45.93;;;3.40;99.90;;;;;;5031967;28;20456;-67
2020/12/02 06:33:19;;;;;;;52.00;46.30;;;3.40;99.90;;;;;;5032409;28;20450;-67
2020/12/02 06:35:50;;;;;;;52.83;47.27;;;3.40;99.90;;;;;;5030540;28;20468;-67
2020/12/02 06:38:27;;;;;;;54.03;48.00;;;3.40;99.90;;;;;;5032117;28;20951;-66
2020/12/02 06:41:30;;;;;;;51.50;45.70;;;3.40;99.90;;;;;;5012487;28;20452;-67
2020/12/02 06:44:16;;;;;;;52.63;45.77;;;3.40;99.90;;;;;;5017144;28;20492;-68
2020/12/02 06:47:12;;;;;;;51.80;46.23;;;3.50;99.90;;;;;;5032329;28;20470;-68
2020/12/02 06:49:39;;;;;;;53.33;47.63;;;3.40;99.90;;;;;;5023399;28;20456;-67
2020/12/02 06:52:08;;;;;;;52.47;47.13;;;3.50;99.90;;;;;;5032205;28;20441;-67
2020/12/02 06:54:40;;;;;;;53.40;45.60;;;3.40;99.90;;;;;;5031379;28;20456;-68
2020/12/02 06:57:24;;;;;;;52.27;46.60;;;3.40;99.90;;;;;;5032323;28;20478;-67
2020/12/02 06:59:54;;;;;;;51.37;45.77;;;3.40;99.90;;;;;;5032035;28;20452;-67
2020/12/02 07:02:43;;;;;;;52.87;47.17;;;3.40;99.90;;;;;;5031739;28;20452;-68
2020/12/02 07:05:18;;;;;;;50.40;44.90;;;3.40;99.90;;;;;;5031204;28;20492;-68
2020/12/02 07:07:44;;;;;;;51.67;45.97;;;3.40;99.90;;;;;;5032321;28;20447;-68
2020/12/02 07:10:20;;;;;;;48.37;43.17;;;3.40;99.90;;;;;;5031903;28;20461;-67
2020/12/02 07:12:47;;;;;;;49.53;44.03;;;3.50;99.90;;;;;;5032640;28;20828;-67
2020/12/02 07:15:15;;;;;;;51.30;45.80;;;3.50;99.90;;;;;;5031509;28;20476;-68
2020/12/02 07:17:41;;;;;;;49.80;44.50;;;3.50;99.90;;;;;;5031737;28;20452;-67
2020/12/02 07:20:14;;;;;;;49.70;44.30;;;3.50;99.90;;;;;;5031744;28;20457;-68
2020/12/02 07:22:49;;;;;;;48.10;42.97;;;3.50;99.90;;;;;;5031557;28;20453;-67
2020/12/02 07:25:15;;;;;;;51.80;45.90;;;3.40;99.90;;;;;;5031428;28;20488;-69
2020/12/02 07:27:44;;;;;;;49.23;43.10;;;3.40;99.90;;;;;;5031549;28;20453;-68
2020/12/02 07:30:20;;;;;;;49.80;43.77;;;3.40;99.90;;;;;;5031678;28;20456;-71
2020/12/02 07:32:46;;;;;;;48.80;43.60;;;3.50;99.90;;;;;;5033709;28;20452;-68
2020/12/02 07:35:17;;;;;;;47.40;42.30;;;3.50;99.90;;;;;;5035028;28;20513;-68
2020/12/02 07:37:43;;;;;;;46.67;41.87;;;3.40;99.90;;;;;;5035259;28;20463;-69
2020/12/02 07:40:29;;;;;;;46.10;41.20;;;3.60;99.90;;;;;;5035145;28;20463;-68
2020/12/02 07:42:58;;;;;;;49.00;43.17;;;3.50;99.90;;;;;;5034704;28;20987;-68
2020/12/02 07:45:30;;;;;;;48.00;42.53;;;3.60;99.90;;;;;;5034792;28;20492;-68
2020/12/02 07:48:00;;;;;;;49.10;43.97;;;3.60;99.90;;;;;;5034929;28;20953;-67
2020/12/02 07:50:31;;;;;;;48.40;43.13;;;3.50;99.90;;;;;;5035463;28;20449;-68
2020/12/02 07:53:06;;;;;;;49.37;43.93;;;3.50;99.90;;;;;;5035148;28;20457;-68
2020/12/02 07:55:40;;;;;;;48.10;42.70;;;3.50;99.90;;;;;;5035046;28;20468;-70
2020/12/02 07:58:12;;;;;;;49.43;44.17;;;3.60;99.90;;;;;;5034692;28;20449;-68
2020/12/02 08:00:43;;;;;;;51.20;45.80;;;3.50;99.90;;;;;;5034725;28;20449;-67
2020/12/02 08:03:26;;;;;;;49.47;44.13;;;3.50;99.90;;;;;;5035075;28;20471;-69
2020/12/02 08:06:01;;;;;;;51.40;45.90;;;3.50;99.90;;;;;;5034526;28;20528;-68
2020/12/02 08:08:27;;;;;;;47.93;42.80;;;3.50;99.90;;;;;;5034615;28;20451;-68
2020/12/02 08:11:04;;;;;;;48.50;43.30;;;3.50;99.90;;;;;;5034610;28;20544;-68
2020/12/02 08:13:32;;;;;;;16.13;13.50;;;3.50;99.90;;;;;;5034261;28;20449;-71
2020/12/02 08:16:00;;;;;;;20.03;15.07;;;8.60;99.90;;;;;;5030112;28;20673;-67
2020/12/02 08:18:29;;;;;;;14.30;13.00;;;12.10;99.90;;;;;;5023618;28;20493;-66
2020/12/02 08:21:08;;;;;;;14.47;13.07;;;14.00;99.90;;;;;;5033076;28;20522;-67
2020/12/02 08:23:36;;;;;;;11.63;10.53;;;15.30;99.90;;;;;;5033605;28;20456;-67
2020/12/02 08:26:11;;;;;;;13.53;12.23;;;16.80;99.90;;;;;;5034027;28;20440;-67
2020/12/02 08:28:39;;;;;;;11.07;9.27;;;17.80;99.90;;;;;;5033994;28;20803;-69
2020/12/02 08:31:17;;;;;;;10.27;9.37;;;18.50;99.90;;;;;;5034332;28;20488;-69
2020/12/02 08:34:08;;;;;;;11.83;10.63;;;19.20;99.90;;;;;;5033534;28;20450;-69
2020/12/02 08:36:35;;;;;;;13.70;12.30;;;19.60;99.90;;;;;;5034025;28;20455;-69
2020/12/02 08:39:01;;;;;;;12.90;11.77;;;19.80;99.90;;;;;;5034249;28;20952;-69
2020/12/02 08:41:37;;;;;;;17.30;9.10;;;20.10;99.90;;;;;;5034437;28;20456;-68
2020/12/02 08:44:09;;;;;;;14.20;12.80;;;20.30;99.90;;;;;;5033222;28;20488;-68
2020/12/02 08:46:47;;;;;;;11.43;10.33;;;20.40;98.90;;;;;;5034077;28;20448;-69
2020/12/02 08:49:13;;;;;;;10.63;9.63;;;20.50;99.90;;;;;;5033844;28;20448;-68
2020/12/02 08:51:40;;;;;;;10.93;10.00;;;20.60;98.80;;;;;;5033872;28;20803;-69
2020/12/02 08:54:11;;;;;;;13.80;12.43;;;20.70;96.50;;;;;;5033986;28;20468;-69
2020/12/02 08:56:39;;;;;;;13.40;12.17;;;20.70;95.40;;;;;;5034005;28;20453;-69
2020/12/02 08:59:07;;;;;;;14.33;12.83;;;20.70;94.40;;;;;;5034002;28;20818;-69
2020/12/02 09:01:34;;;;;;;13.37;12.27;;;20.70;93.60;;;;;;5033437;28;20459;-69
2020/12/02 09:04:00;;;;;;;13.83;12.63;;;20.70;93.10;;;;;;5033165;28;20559;-69
2020/12/02 09:06:26;;;;;;;14.90;13.37;;;20.70;92.50;;;;;;5034112;28;20449;-68
2020/12/02 09:08:54;;;;;;;13.97;12.57;;;20.70;91.90;;;;;;5033761;28;20449;-69
2020/12/02 09:11:24;;;;;;;13.30;12.10;;;20.80;91.70;;;;;;5033404;28;20445;-69
2020/12/02 09:13:51;;;;;;;13.07;11.90;;;20.70;90.70;;;;;;5033242;28;20491;-68
2020/12/02 09:16:23;;;;;;;15.17;13.77;;;20.70;90.30;;;;;;5033239;28;20454;-69
2020/12/02 09:18:49;;;;;;;15.17;13.97;;;20.60;90.10;;;;;;5033733;28;20448;-69
2020/12/02 09:21:16;;;;;;;37.90;34.60;;;18.50;80.50;;;;;;5032504;28;20858;-67
2020/12/02 09:23:42;;;;;;;33.63;30.10;;;6.80;96.90;;;;;;5031693;28;20833;-67
2020/12/02 09:26:08;;;;;;;30.40;27.20;;;6.00;99.90;;;;;;5032503;28;20484;-67
2020/12/02 09:28:34;;;;;;;40.50;36.60;;;6.40;99.90;;;;;;5032510;28;20459;-69
2020/12/02 09:31:02;;;;;;;43.53;39.07;;;4.60;99.90;;;;;;5032972;28;20444;-68
2020/12/02 09:33:28;;;;;;;43.67;38.90;;;4.10;99.90;;;;;;5032371;28;20826;-66
2020/12/02 09:35:54;;;;;;;43.03;38.63;;;3.90;99.90;;;;;;5032798;28;20453;-69
2020/12/02 09:38:21;;;;;;;43.47;39.00;;;3.80;99.90;;;;;;5032398;28;20454;-66
2020/12/02 09:40:49;;;;;;;44.80;40.20;;;3.70;99.90;;;;;;5033007;28;20452;-67
2020/12/02 09:43:38;;;;;;;43.47;39.10;;;3.70;99.90;;;;;;5032347;28;20485;-67
2020/12/02 09:46:11;;;;;;;43.50;38.90;;;3.60;99.90;;;;;;5032994;28;20480;-66
2020/12/02 09:48:38;;;;;;;44.27;39.57;;;3.60;99.90;;;;;;5032465;28;20457;-67
2020/12/02 09:51:18;;;;;;;44.50;39.67;;;3.60;99.90;;;;;;5033116;28;20455;-66
2020/12/02 09:53:44;;;;;;;45.73;41.17;;;3.60;99.90;;;;;;5031735;28;21071;-67
2020/12/02 09:56:11;;;;;;;44.43;39.90;;;3.60;99.90;;;;;;5032541;28;20888;-67
2020/12/02 09:58:38;;;;;;;46.43;41.43;;;3.60;99.90;;;;;;5032014;28;20449;-72
2020/12/02 10:01:13;;;;;;;46.20;41.53;;;3.50;99.90;;;;;;5032331;28;20484;-67
2020/12/02 10:04:27;;;;;;;44.13;39.43;;;3.60;99.90;;;;;;5030688;28;20499;-67
2020/12/02 10:07:20;;;;;;;45.23;40.57;;;3.60;99.90;;;;;;5007443;28;20524;-67
2020/12/02 10:10:06;;;;;;;45.60;40.70;;;3.60;99.90;;;;;;5032961;28;20453;-64
2020/12/02 10:12:47;;;;;;;44.97;40.40;;;3.60;99.90;;;;;;5032728;28;20539;-64
2020/12/02 10:15:26;;;;;;;44.40;39.70;;;3.60;99.90;;;;;;5031184;28;20464;-65
2020/12/02 10:18:20;;;;;;;45.07;40.70;;;3.70;99.90;;;;;;5032008;28;20452;-66
2020/12/02 10:20:48;;;;;;;44.70;40.13;;;3.50;99.90;;;;;;5031226;28;20455;-65
2020/12/02 10:23:34;;;;;;;43.87;39.57;;;3.40;99.90;;;;;;5032115;28;20448;-65
2020/12/02 10:26:32;;;;;;;45.50;40.80;;;3.60;99.90;;;;;;5031964;28;20488;-65
2020/12/02 10:29:00;;;;;;;47.40;42.33;;;3.70;99.90;;;;;;5032151;28;20452;-65
2020/12/02 10:31:40;;;;;;;46.87;42.10;;;3.60;99.90;;;;;;5031983;28;20455;-65
2020/12/02 10:34:14;;;;;;;48.70;43.63;;;3.60;99.90;;;;;;5031496;28;20488;-65
2020/12/02 10:36:45;;;;;;;45.87;41.10;;;3.40;99.90;;;;;;5032272;28;20448;-65
2020/12/02 10:39:16;;;;;;;45.33;40.60;;;3.60;99.90;;;;;;5032067;28;20939;-65
2020/12/02 10:41:58;;;;;;;46.13;41.40;;;3.60;99.90;;;;;;5032211;28;20825;-64
2020/12/02 10:44:38;;;;;;;47.30;42.40;;;3.60;99.90;;;;;;5031679;28;20484;-65
2020/12/02 10:48:02;;;;;;;44.97;40.30;;;3.60;99.90;;;;;;5031983;28;20448;-65
2020/12/02 10:50:31;;;;;;;45.53;40.73;;;3.60;99.90;;;;;;5009015;28;20547;-66
2020/12/02 10:52:59;;;;;;;42.63;38.40;;;3.60;99.90;;;;;;5031548;28;20495;-65
2020/12/02 10:55:30;;;;;;;45.27;40.70;;;3.60;99.90;;;;;;5014623;28;20461;-64
2020/12/02 10:57:58;;;;;;;43.17;38.80;;;3.60;99.90;;;;;;5018423;28;20460;-65
2020/12/02 11:00:24;;;;;;;44.90;40.30;;;3.70;99.90;;;;;;5031543;28;20444;-66
2020/12/02 11:03:07;;;;;;;45.57;40.87;;;3.60;99.90;;;;;;5031023;28;20532;-65
2020/12/02 11:05:34;;;;;;;43.13;39.00;;;3.50;99.90;;;;;;5031045;28;20491;-67
2020/12/02 11:08:10;;;;;;;41.77;37.67;;;3.50;99.90;;;;;;5033274;28;20462;-67
2020/12/02 11:10:45;;;;;;;42.90;38.37;;;3.60;99.90;;;;;;5035240;28;20455;-64
2020/12/02 11:13:22;;;;;;;44.77;40.17;;;3.60;99.90;;;;;;5035571;28;20448;-64
2020/12/02 11:15:58;;;;;;;44.73;40.30;;;3.60;99.90;;;;;;5034962;28;20483;-65
2020/12/02 11:19:02;;;;;;;44.40;39.80;;;3.70;99.90;;;;;;5035739;28;20542;-64
2020/12/02 11:21:41;;;;;;;45.60;41.13;;;3.70;99.90;;;;;;5009421;28;20826;-64
2020/12/02 11:24:43;;;;;;;46.57;41.93;;;3.70;99.90;;;;;;5016534;28;20849;-65
2020/12/02 11:27:10;;;;;;;47.10;42.30;;;3.70;99.90;;;;;;5015544;28;20448;-65
2020/12/02 11:29:36;;;;;;;44.70;40.17;;;3.60;99.90;;;;;;5019519;28;20457;-64
2020/12/02 11:32:28;;;;;;;46.23;41.63;;;3.70;99.90;;;;;;5035464;28;20981;-64
2020/12/02 11:35:09;;;;;;;46.07;41.37;;;3.60;99.90;;;;;;5034760;28;20485;-64
2020/12/02 11:37:45;;;;;;;45.13;40.50;;;3.70;99.90;;;;;;5035501;28;20936;-66
2020/12/02 11:40:14;;;;;;;42.83;37.70;;;3.80;99.90;;;;;;5034772;28;20794;-65
2020/12/02 11:42:44;;;;;;;47.73;42.43;;;3.80;99.90;;;;;;5035328;28;20445;-65
2020/12/02 11:45:17;;;;;;;42.43;38.23;;;3.70;99.90;;;;;;5034787;28;20499;-64
2020/12/02 11:48:08;;;;;;;46.50;41.90;;;3.80;99.90;;;;;;5034783;28;20448;-65
2020/12/02 11:50:40;;;;;;;44.53;40.27;;;3.70;99.90;;;;;;5034304;28;20978;-64
2020/12/02 11:53:26;;;;;;;44.03;39.73;;;3.70;99.90;;;;;;5034958;28;20444;-64
2020/12/02 11:55:53;;;;;;;44.50;39.80;;;3.70;99.90;;;;;;5025291;28;20495;-65
2020/12/02 11:58:19;;;;;;;44.73;40.20;;;3.70;99.90;;;;;;5034151;28;20519;-64
2020/12/02 12:00:45;;;;;;;47.50;42.70;;;3.70;99.90;;;;;;5034089;28;20819;-64
2020/12/02 12:03:24;;;;;;;46.03;41.27;;;3.70;99.90;;;;;;5034492;28;20848;-66
2020/12/02 12:06:02;;;;;;;48.10;43.37;;;3.70;99.90;;;;;;5014701;28;20497;-65
2020/12/02 12:08:41;;;;;;;43.87;39.57;;;3.70;99.90;;;;;;5015745;28;20445;-65
2020/12/02 12:11:12;;;;;;;43.40;39.00;;;3.60;99.90;;;;;;5034421;28;20445;-66
2020/12/02 12:13:44;;;;;;;43.77;39.33;;;3.60;99.90;;;;;;5034112;28;20479;-65
2020/12/02 12:16:18;;;;;;;45.07;40.37;;;3.60;99.90;;;;;;5034593;28;20796;-65
2020/12/02 12:18:51;;;;;;;43.73;39.33;;;3.60;99.90;;;;;;5033148;28;21018;-64
2020/12/02 12:21:26;;;;;;;44.50;40.10;;;3.70;99.90;;;;;;5034515;28;20437;-65
2020/12/02 12:23:58;;;;;;;45.37;40.77;;;3.70;99.90;;;;;;5033265;28;20476;-65
2020/12/02 12:26:28;;;;;;;39.30;34.00;;;3.70;99.90;;;;;;5034133;28;20858;-66
2020/12/02 12:28:54;;;;;;;41.00;34.90;;;3.90;99.90;;;;;;5034140;28;20468;-65
2020/12/02 12:31:30;;;;;;;38.17;33.73;;;4.00;99.90;;;;;;5033638;28;20488;-66
2020/12/02 12:34:05;;;;;;;34.23;30.23;;;4.60;99.90;;;;;;5033032;28;20543;-69
2020/12/02 12:36:33;;;;;;;24.97;22.00;;;4.70;99.90;;;;;;5033745;28;20946;-65
2020/12/02 12:39:07;;;;;;;38.63;30.70;;;5.20;99.90;;;;;;5032974;28;20460;-65
2020/12/02 12:41:38;;;;;;;35.60;31.70;;;5.00;99.90;;;;;;5034759;28;20452;-65
2020/12/02 12:44:11;;;;;;;37.33;32.27;;;5.20;99.90;;;;;;5049543;28;20474;-66
2020/12/02 12:46:45;;;;;;;35.87;31.63;;;4.80;99.90;;;;;;5034020;28;20440;-65
2020/12/02 12:49:14;;;;;;;35.73;30.57;;;5.20;99.90;;;;;;5033104;28;20448;-66
2020/12/02 12:51:40;;;;;;;41.53;37.43;;;4.80;99.90;;;;;;5033260;28;20940;-68
2020/12/02 12:54:13;;;;;;;41.13;37.23;;;4.40;99.90;;;;;;5033018;28;21057;-65
2020/12/02 12:56:41;;;;;;;43.77;39.23;;;4.00;99.90;;;;;;5033309;28;20444;-67
2020/12/02 12:59:10;;;;;;;42.50;38.30;;;4.00;99.90;;;;;;5033156;28;20463;-65